createdAt,value
2022-10-18T15:16:06.220Z,102045.69
2022-10-18T15:18:34.140Z,102048.28
2022-10-18T15:21:22.004Z,102050.81
2022-10-18T15:23:50.164Z,101917.78
2022-10-18T15:26:24.669Z,102059.88
2022-10-18T15:28:56.252Z,102070.19
2022-10-18T15:31:30.445Z,102064.22
2022-10-18T15:34:10.629Z,102061.44
2022-10-18T15:36:39.121Z,102065.06
2022-10-18T15:39:09.074Z,102008.25
2022-10-18T15:41:38.523Z,102069.06
2022-10-18T15:44:20.251Z,102074.28
2022-10-18T15:46:50.628Z,102071.91
2022-10-18T15:49:52.065Z,102069.38
2022-10-18T15:52:38.771Z,102069.44
2022-10-18T15:55:48.189Z,102061.69
2022-10-18T15:58:19.983Z,102060.03
2022-10-18T16:00:49.710Z,102066.16
2022-10-18T16:03:21.716Z,102067.75
2022-10-18T16:05:50.044Z,102060.94
2022-10-18T16:08:20.717Z,102059.09
2022-10-18T16:10:48.539Z,102054.06
2022-10-18T16:13:16.278Z,102060.00
2022-10-18T16:15:43.964Z,102061.03
2022-10-18T16:18:16.439Z,102045.31
2022-10-18T16:20:46.356Z,102055.69
2022-10-18T16:23:18.337Z,102062.75
2022-10-18T16:25:46.655Z,102066.31
2022-10-18T16:28:16.134Z,102062.75
2022-10-18T16:30:47.279Z,102070.81
2022-10-18T16:33:19.181Z,102072.47
2022-10-18T16:35:50.986Z,102069.97
2022-10-18T16:38:31.068Z,102073.31
2022-10-18T16:41:02.153Z,102069.09
2022-10-18T16:43:29.901Z,102086.53
2022-10-18T16:45:57.621Z,102077.69
2022-10-18T16:48:26.225Z,102080.47
2022-10-18T16:50:56.696Z,102089.94
2022-10-18T16:53:25.158Z,102089.22
2022-10-18T16:55:55.454Z,102092.69
2022-10-18T17:00:57.020Z,102088.38
2022-10-18T17:03:25.563Z,102077.06
2022-10-18T17:05:53.621Z,102091.88
2022-10-18T17:08:24.920Z,102100.53
2022-10-18T17:10:54.414Z,102099.56
2022-10-18T17:13:23.319Z,102101.41
2022-10-18T17:15:51.960Z,102105.69
2022-10-18T17:18:21.780Z,102106.72
2022-10-18T17:20:50.459Z,102108.44
2022-10-18T17:23:18.195Z,102118.88
2022-10-18T17:25:59.076Z,102119.69
2022-10-18T17:28:35.323Z,102128.47
2022-10-18T17:31:03.089Z,102114.72
2022-10-18T17:33:30.835Z,102135.84
2022-10-18T17:35:58.589Z,102145.31
2022-10-18T17:38:26.231Z,102148.06
2022-10-18T17:40:56.814Z,102137.66
2022-10-18T17:43:24.463Z,102100.34
2022-10-18T17:45:56.349Z,102156.13
2022-10-18T17:48:24.545Z,102114.34
2022-10-18T17:50:52.230Z,102140.50
2022-10-18T17:53:22.874Z,102144.78
2022-10-18T17:55:50.648Z,102159.50
2022-10-18T17:58:19.717Z,102140.41
2022-10-18T18:00:47.412Z,102155.25
2022-10-18T18:03:15.171Z,102131.88
2022-10-18T18:05:42.987Z,102148.28
2022-10-18T18:08:10.746Z,102153.69
2022-10-18T18:10:38.658Z,102146.72
2022-10-18T18:13:06.419Z,102166.72
2022-10-18T18:15:35.627Z,102166.66
2022-10-18T18:18:03.328Z,102165.91
2022-10-18T18:20:31.161Z,102183.34
2022-10-18T18:22:58.947Z,102189.38
2022-10-18T18:25:26.624Z,102194.66
2022-10-18T18:27:55.554Z,102195.59
2022-10-18T18:30:23.323Z,102186.06
2022-10-18T18:32:52.448Z,102206.09
2022-10-18T18:35:20.214Z,102206.97
2022-10-18T18:37:51.008Z,102202.66
2022-10-18T18:40:19.008Z,102193.09
2022-10-18T18:43:01.602Z,102189.63
2022-10-18T18:45:34.450Z,102135.69
2022-10-18T18:48:03.543Z,102159.13
2022-10-18T18:50:31.881Z,102184.31
2022-10-18T18:52:59.620Z,102189.53
2022-10-18T18:55:27.580Z,102187.78
2022-10-18T18:57:55.298Z,102189.53
2022-10-18T19:00:23.056Z,102159.97
2022-10-18T19:02:50.798Z,102198.22
2022-10-18T19:05:20.073Z,102194.75
2022-10-18T19:07:47.953Z,102205.19
2022-10-18T19:10:15.717Z,102216.53
2022-10-18T19:12:43.507Z,102196.50
2022-10-18T19:15:11.987Z,102206.94
2022-10-18T19:17:39.692Z,102202.50
2022-10-18T19:20:07.833Z,102198.16
2022-10-18T19:22:38.450Z,102168.69
2022-10-18T19:25:07.136Z,102198.22
2022-10-18T19:27:35.144Z,102173.84
2022-10-18T19:30:03.111Z,102210.31
2022-10-18T19:32:30.821Z,102197.28
2022-10-18T19:34:58.624Z,102208.56
2022-10-18T19:37:26.383Z,102192.94
2022-10-18T19:39:55.451Z,102203.34
2022-10-18T19:42:27.470Z,102224.28
2022-10-18T19:44:58.149Z,102212.09
2022-10-18T19:47:25.911Z,102150.41
2022-10-18T19:49:53.816Z,102211.19
2022-10-18T19:52:21.504Z,102203.38
2022-10-18T19:54:50.183Z,102207.69
2022-10-18T19:57:19.230Z,102206.84
2022-10-18T19:59:46.883Z,102195.50
2022-10-18T20:02:15.492Z,102202.50
2022-10-18T20:04:43.161Z,102199.94
2022-10-18T20:07:10.874Z,102196.41
2022-10-18T20:09:39.681Z,102197.28
2022-10-18T20:12:07.398Z,102203.41
2022-10-18T20:14:36.559Z,102201.69
2022-10-18T20:17:05.770Z,102205.13
2022-10-18T20:19:33.690Z,102189.50
2022-10-18T20:22:01.372Z,102207.72
2022-10-18T20:24:29.268Z,102207.81
2022-10-18T20:26:56.950Z,102209.56
2022-10-18T20:29:25.527Z,102213.13
2022-10-18T20:31:55.593Z,102211.31
2022-10-18T20:34:25.940Z,102201.75
2022-10-18T20:36:55.239Z,102171.34
2022-10-18T20:39:23.111Z,102214.81
2022-10-18T20:41:50.989Z,102187.00
2022-10-18T20:44:20.903Z,102214.84
2022-10-18T20:46:48.573Z,102223.50
2022-10-18T20:49:18.083Z,102220.00
2022-10-18T20:51:46.613Z,102228.75
2022-10-18T20:54:14.945Z,102214.88
2022-10-18T20:56:43.093Z,102232.31
2022-10-18T20:59:11.561Z,102234.94
2022-10-18T21:01:40.102Z,102237.53
2022-10-18T21:04:09.819Z,102248.84
2022-10-18T21:06:41.347Z,102247.91
2022-10-18T21:09:11.708Z,102234.91
2022-10-18T21:11:40.609Z,102241.88
2022-10-18T21:14:08.980Z,102237.53
2022-10-18T21:16:37.267Z,102242.63
2022-10-18T21:19:05.600Z,102245.31
2022-10-18T21:21:33.459Z,102242.69
2022-10-18T21:24:06.879Z,102240.09
2022-10-18T21:26:36.056Z,102244.50
2022-10-18T21:29:05.477Z,102234.06
2022-10-18T21:31:36.524Z,102229.72
2022-10-18T21:34:06.306Z,102243.66
2022-10-18T21:36:36.173Z,102253.22
2022-10-18T21:39:07.019Z,102242.78
2022-10-18T21:41:36.332Z,102238.47
2022-10-18T21:44:08.248Z,102252.34
2022-10-18T21:46:37.701Z,102248.84
2022-10-18T21:49:05.408Z,102238.41
2022-10-18T21:51:33.103Z,102246.25
2022-10-18T21:54:00.802Z,102248.00
2022-10-18T21:56:31.522Z,102243.63
2022-10-18T21:58:59.671Z,102246.19
2022-10-18T22:01:29.950Z,102242.69
2022-10-18T22:03:58.127Z,102246.19
2022-10-18T22:06:29.257Z,102250.53
2022-10-18T22:08:58.171Z,102245.28
2022-10-18T22:11:28.234Z,102247.91
2022-10-18T22:13:57.780Z,102252.25
2022-10-18T22:16:26.052Z,102246.19
2022-10-18T22:18:59.183Z,102222.72
2022-10-18T22:21:27.273Z,102252.28
2022-10-18T22:23:56.925Z,102247.91
2022-10-18T22:26:28.685Z,102246.09
2022-10-18T22:29:00.212Z,102147.97
2022-10-18T22:31:31.000Z,102239.19
2022-10-18T22:34:01.329Z,102247.84
2022-10-18T22:36:29.022Z,102246.97
2022-10-18T22:38:56.798Z,102242.63
2022-10-18T22:41:24.913Z,102249.59
2022-10-18T22:43:53.171Z,102227.03
2022-10-18T22:46:22.261Z,102244.41
2022-10-18T22:48:50.361Z,102241.78
2022-10-18T22:51:18.119Z,102243.56
2022-10-18T22:53:45.950Z,102244.34
2022-10-18T22:56:17.497Z,102250.47
2022-10-18T22:58:45.725Z,102250.44
2022-10-18T23:01:15.809Z,102233.03
2022-10-18T23:03:44.986Z,102217.41
2022-10-18T23:06:21.253Z,102247.81
2022-10-18T23:08:49.574Z,102250.38
2022-10-18T23:11:17.311Z,102245.28
2022-10-18T23:13:45.079Z,102243.53
2022-10-18T23:16:12.960Z,102239.09
2022-10-18T23:18:40.664Z,102244.31
2022-10-18T23:21:11.105Z,102128.72
2022-10-18T23:23:41.571Z,102239.91
2022-10-18T23:26:11.772Z,102245.13
2022-10-18T23:28:41.385Z,102231.28
2022-10-18T23:31:10.747Z,102240.84
2022-10-18T23:33:39.457Z,102248.69
2022-10-18T23:36:09.840Z,102258.22
2022-10-18T23:38:38.533Z,102251.28
2022-10-18T23:41:06.952Z,102244.34
2022-10-18T23:43:35.118Z,102251.31
2022-10-18T23:46:03.232Z,102240.88
2022-10-18T23:48:31.119Z,102254.78
2022-10-18T23:50:58.851Z,102253.06
2022-10-18T23:53:27.950Z,102250.44
2022-10-18T23:55:56.893Z,102250.47
2022-10-18T23:58:25.739Z,102244.50
